createdAt,value
2022-10-03T00:01:52.267Z,2.95
2022-10-03T00:04:43.382Z,2.80
2022-10-03T00:07:27.238Z,3.13
2022-10-03T00:10:07.818Z,3.28
2022-10-03T00:12:51.919Z,3.63
2022-10-03T00:15:26.221Z,3.90
2022-10-03T00:18:04.319Z,3.67
2022-10-03T00:20:55.422Z,3.90
2022-10-03T00:23:37.341Z,3.80
2022-10-03T00:26:28.427Z,3.75
2022-10-03T00:29:07.941Z,3.47
2022-10-03T00:31:45.686Z,3.83
2022-10-03T00:34:25.657Z,4.13
2022-10-03T00:37:13.233Z,3.60
2022-10-03T00:39:54.729Z,3.83
2022-10-03T00:42:55.594Z,3.70
2022-10-03T00:45:46.195Z,4.60
2022-10-03T00:48:49.792Z,4.80
2022-10-03T00:51:41.910Z,3.83
2022-10-03T00:54:38.604Z,4.50
2022-10-03T00:57:25.286Z,4.32
2022-10-03T01:00:08.380Z,4.10
2022-10-03T01:02:50.359Z,4.70
2022-10-03T01:05:31.625Z,4.47
2022-10-03T01:08:26.512Z,4.20
2022-10-03T01:11:03.576Z,4.78
2022-10-03T01:13:46.154Z,4.55
2022-10-03T01:16:20.021Z,4.47
2022-10-03T01:19:02.722Z,4.78
2022-10-03T01:21:43.157Z,4.90
2022-10-03T01:24:34.133Z,5.18
2022-10-03T01:27:04.238Z,4.75
2022-10-03T01:30:02.314Z,4.45
2022-10-03T01:32:37.603Z,4.63
2022-10-03T01:35:19.341Z,4.95
2022-10-03T01:37:53.666Z,5.05
2022-10-03T01:40:29.519Z,5.20
2022-10-03T01:43:11.824Z,5.32
2022-10-03T01:45:49.614Z,5.30
2022-10-03T01:48:28.106Z,5.55
2022-10-03T01:51:04.603Z,5.68
2022-10-03T01:53:42.586Z,5.80
2022-10-03T01:56:20.145Z,5.60
2022-10-03T01:58:58.914Z,5.75
2022-10-03T02:01:35.428Z,6.05
2022-10-03T02:04:13.357Z,5.75
2022-10-03T02:06:51.173Z,6.78
2022-10-03T02:09:28.162Z,5.65
2022-10-03T02:12:03.179Z,5.65
2022-10-03T02:14:40.824Z,5.95
2022-10-03T02:17:22.643Z,6.07
2022-10-03T02:19:58.618Z,6.40
2022-10-03T02:22:34.235Z,6.18
2022-10-03T02:25:22.389Z,6.00
2022-10-03T02:28:09.513Z,5.82
2022-10-03T02:30:54.199Z,6.30
2022-10-03T02:33:54.844Z,7.00
2022-10-03T02:37:21.182Z,6.47
2022-10-03T02:40:19.580Z,7.40
2022-10-03T02:43:23.709Z,6.97
2022-10-03T02:46:27.659Z,6.07
2022-10-03T02:49:15.411Z,7.38
2022-10-03T02:52:10.973Z,7.45
2022-10-03T02:55:06.274Z,7.15
2022-10-03T02:58:18.195Z,6.47
2022-10-03T03:01:20.092Z,7.20
2022-10-03T03:04:19.991Z,7.27
2022-10-03T03:07:03.618Z,7.00
2022-10-03T03:10:06.500Z,6.63
2022-10-03T03:16:01.410Z,7.13
2022-10-03T03:18:35.802Z,6.88
2022-10-03T03:21:16.094Z,7.60
2022-10-03T03:24:30.815Z,7.10
2022-10-03T03:27:25.846Z,7.15
2022-10-03T03:30:03.366Z,7.05
2022-10-03T03:32:44.119Z,7.03
2022-10-03T03:35:22.579Z,7.32
2022-10-03T03:38:00.777Z,7.63
2022-10-03T03:40:40.838Z,8.13
2022-10-03T03:43:36.010Z,7.28
2022-10-03T03:46:16.244Z,7.13
2022-10-03T03:49:06.605Z,7.43
2022-10-03T03:51:43.454Z,7.90
2022-10-03T03:54:57.541Z,7.78
2022-10-03T03:57:38.574Z,8.68
2022-10-03T04:00:15.034Z,8.25
2022-10-03T04:03:22.165Z,8.23
2022-10-03T04:06:08.604Z,8.63
2022-10-03T04:08:49.374Z,9.25
2022-10-03T04:11:28.037Z,9.10
2022-10-03T04:14:23.886Z,8.57
2022-10-03T04:17:34.992Z,8.68
2022-10-03T04:20:18.743Z,8.15
2022-10-03T04:23:12.931Z,8.65
2022-10-03T04:25:54.816Z,8.93
2022-10-03T04:28:37.243Z,10.32
2022-10-03T04:33:53.850Z,8.77
2022-10-03T04:36:57.375Z,8.57
2022-10-03T04:39:35.521Z,7.80
2022-10-03T04:42:11.356Z,7.75
2022-10-03T04:44:54.331Z,9.20
2022-10-03T04:47:28.561Z,9.95
2022-10-03T04:50:11.160Z,9.68
2022-10-03T04:52:43.787Z,9.75
2022-10-03T04:55:26.766Z,9.43
2022-10-03T04:58:05.100Z,9.55
2022-10-03T05:00:41.557Z,8.27
2022-10-03T05:03:21.141Z,8.73
2022-10-03T05:05:55.992Z,9.05
2022-10-03T05:08:34.682Z,9.57
2022-10-03T05:11:11.019Z,9.07
2022-10-03T05:13:59.860Z,8.32
2022-10-03T05:16:37.400Z,9.10
2022-10-03T05:19:24.199Z,9.52
2022-10-03T05:21:59.988Z,9.43
2022-10-03T05:24:37.307Z,9.57
2022-10-03T05:27:14.786Z,9.55
2022-10-03T05:29:48.202Z,9.07
2022-10-03T05:32:27.142Z,10.13
2022-10-03T05:35:16.371Z,10.30
2022-10-03T05:38:14.410Z,10.05
2022-10-03T05:40:48.882Z,8.75
2022-10-03T05:43:28.731Z,9.25
2022-10-03T05:46:04.951Z,8.07
2022-10-03T05:48:40.964Z,8.45
2022-10-03T05:51:44.807Z,8.63
2022-10-03T05:55:02.714Z,8.60
2022-10-03T05:58:01.770Z,9.15
2022-10-03T06:00:41.526Z,8.05
2022-10-03T06:03:31.695Z,8.63
2022-10-03T06:06:14.085Z,8.13
2022-10-03T06:09:04.857Z,8.10
2022-10-03T06:11:59.012Z,8.23
2022-10-03T06:14:40.018Z,8.18
2022-10-03T06:17:28.131Z,8.98
2022-10-03T06:20:04.666Z,8.57
2022-10-03T06:23:06.281Z,8.57
2022-10-03T06:26:01.787Z,8.63
2022-10-03T06:29:14.654Z,7.03
2022-10-03T06:32:22.282Z,8.20
2022-10-03T06:35:26.106Z,8.20
2022-10-03T06:38:22.916Z,8.40
2022-10-03T06:41:25.485Z,7.72
2022-10-03T06:44:12.518Z,7.15
2022-10-03T06:47:15.397Z,8.00
2022-10-03T06:52:43.252Z,7.32
2022-10-03T06:55:37.088Z,7.45
2022-10-03T06:58:30.660Z,7.22
2022-10-03T07:01:15.065Z,6.93
2022-10-03T07:04:44.719Z,7.80
2022-10-03T07:08:02.653Z,7.68
2022-10-03T07:10:44.078Z,7.53
2022-10-03T07:13:31.761Z,8.18
2022-10-03T07:16:33.671Z,7.43
2022-10-03T07:19:31.053Z,7.90
2022-10-03T07:22:36.354Z,7.68
2022-10-03T07:25:41.047Z,7.88
2022-10-03T07:28:45.598Z,7.78
2022-10-03T07:31:24.291Z,7.82
2022-10-03T07:34:24.820Z,8.55
2022-10-03T07:37:27.351Z,7.82
2022-10-03T07:40:27.595Z,7.18
2022-10-03T07:43:21.544Z,7.53
2022-10-03T07:46:23.620Z,8.00
2022-10-03T07:49:09.338Z,7.47
2022-10-03T07:51:45.155Z,7.80
2022-10-03T07:54:26.943Z,8.05
2022-10-03T07:57:21.858Z,7.93
2022-10-03T08:00:09.108Z,7.72
2022-10-03T08:03:06.058Z,8.70
2022-10-03T08:05:50.289Z,8.05
2022-10-03T08:08:55.076Z,7.30
2022-10-03T08:11:50.913Z,8.38
2022-10-03T08:14:20.432Z,8.20
2022-10-03T08:17:22.198Z,8.07
2022-10-03T08:20:15.941Z,8.32
2022-10-03T08:22:54.635Z,7.80
2022-10-03T08:25:30.458Z,8.15
2022-10-03T08:28:26.468Z,7.10
2022-10-03T08:31:21.177Z,6.68
2022-10-03T08:34:11.585Z,7.22
2022-10-03T08:37:04.063Z,6.72
2022-10-03T08:39:56.168Z,7.78
2022-10-03T08:42:59.993Z,6.97
2022-10-03T08:46:00.677Z,7.28
2022-10-03T08:49:00.330Z,7.82
2022-10-03T08:52:07.056Z,6.78
2022-10-03T08:54:57.982Z,7.32
2022-10-03T08:57:59.628Z,6.35
2022-10-03T09:00:34.722Z,7.20
2022-10-03T09:03:40.718Z,7.28
2022-10-03T09:07:15.824Z,6.90
2022-10-03T09:10:22.769Z,6.25
2022-10-03T09:13:33.540Z,6.60
2022-10-03T09:16:30.347Z,5.35
2022-10-03T09:19:36.502Z,5.75
2022-10-03T09:22:20.287Z,6.18
2022-10-03T09:25:21.004Z,5.95
2022-10-03T09:28:28.500Z,5.70
2022-10-03T09:31:09.798Z,5.57
2022-10-03T09:34:05.450Z,5.82
2022-10-03T09:37:09.972Z,6.45
2022-10-03T09:40:19.604Z,5.40
2022-10-03T09:43:14.864Z,5.78
2022-10-03T09:46:22.533Z,5.40
2022-10-03T09:49:28.969Z,6.38
2022-10-03T09:52:11.820Z,6.28
2022-10-03T09:55:08.466Z,7.95
2022-10-03T09:58:15.506Z,6.18
2022-10-03T10:01:18.348Z,6.28
2022-10-03T10:06:58.217Z,5.35
2022-10-03T10:09:51.356Z,5.78
2022-10-03T10:12:52.217Z,5.78
2022-10-03T10:16:08.408Z,5.10
2022-10-03T10:18:59.690Z,5.82
2022-10-03T10:21:43.452Z,5.22
2022-10-03T10:24:59.053Z,5.18
2022-10-03T10:28:08.506Z,5.43
2022-10-03T10:31:01.464Z,5.45
2022-10-03T10:34:03.987Z,4.93
2022-10-03T10:37:33.692Z,4.90
2022-10-03T10:40:44.269Z,5.05
2022-10-03T10:44:02.203Z,4.35
2022-10-03T10:47:00.302Z,5.18
2022-10-03T10:50:09.342Z,4.82
2022-10-03T10:53:12.181Z,4.70
2022-10-03T10:59:24.703Z,4.55
2022-10-03T11:02:40.618Z,5.00
2022-10-03T11:05:46.879Z,4.57
2022-10-03T11:08:59.921Z,5.07
2022-10-03T11:15:04.850Z,4.97
2022-10-03T11:17:54.691Z,4.35
2022-10-03T11:20:52.811Z,4.45
2022-10-03T11:24:02.757Z,3.97
2022-10-03T11:27:03.130Z,3.88
2022-10-03T11:30:05.002Z,4.10
2022-10-03T11:33:26.516Z,4.57
2022-10-03T11:36:30.805Z,4.78
2022-10-03T11:39:06.041Z,4.38
2022-10-03T11:41:47.362Z,4.25
2022-10-03T11:44:24.972Z,4.22
2022-10-03T11:47:09.059Z,4.03
2022-10-03T11:50:01.631Z,3.72
2022-10-03T11:55:25.085Z,3.88
2022-10-03T11:58:04.148Z,4.30
2022-10-03T12:00:37.242Z,3.90
2022-10-03T12:03:21.020Z,4.03
2022-10-03T12:06:14.218Z,3.38
2022-10-03T12:08:57.724Z,3.53
2022-10-03T12:11:30.569Z,4.10
2022-10-03T12:14:23.993Z,3.50
2022-10-03T12:17:05.788Z,3.13
2022-10-03T12:19:42.331Z,3.45
2022-10-03T12:22:22.725Z,3.58
2022-10-03T12:24:52.052Z,4.05
2022-10-03T12:27:39.146Z,3.17
2022-10-03T12:30:16.536Z,3.20
2022-10-03T12:32:52.430Z,3.47
2022-10-03T12:35:37.444Z,3.35
2022-10-03T12:38:26.513Z,3.47
2022-10-03T12:41:04.932Z,3.28
2022-10-03T12:43:48.711Z,3.15
2022-10-03T12:46:22.118Z,3.25
2022-10-03T12:49:00.501Z,3.58
2022-10-03T12:51:43.744Z,3.70
2022-10-03T12:54:26.694Z,3.75
2022-10-03T12:57:25.877Z,3.60
2022-10-03T13:00:05.414Z,3.30
2022-10-03T13:02:38.119Z,3.53
2022-10-03T13:05:29.833Z,2.78
2022-10-03T13:08:02.732Z,2.42
2022-10-03T13:10:39.669Z,2.47
2022-10-03T13:13:23.735Z,2.50
2022-10-03T13:16:23.115Z,2.13
2022-10-03T13:19:01.985Z,2.60
2022-10-03T13:22:03.445Z,2.45
2022-10-03T13:24:39.645Z,1.98
2022-10-03T13:27:33.037Z,2.38
2022-10-03T13:30:14.865Z,1.90
2022-10-03T13:32:47.387Z,1.80
2022-10-03T13:35:52.939Z,2.13
2022-10-03T13:38:39.520Z,2.10
2022-10-03T13:41:16.867Z,1.80
2022-10-03T13:43:50.950Z,1.77
2022-10-03T13:46:24.992Z,2.05
2022-10-03T13:49:02.294Z,1.73
2022-10-03T13:51:45.281Z,2.38
2022-10-03T13:54:21.359Z,2.08
2022-10-03T13:56:55.084Z,2.55
2022-10-03T13:59:48.615Z,2.65
2022-10-03T14:02:41.990Z,3.03
2022-10-03T14:05:38.534Z,2.15
2022-10-03T14:08:16.137Z,2.42
2022-10-03T14:11:12.692Z,2.40
2022-10-03T14:13:53.588Z,2.28
2022-10-03T14:16:28.558Z,3.50
2022-10-03T14:19:03.758Z,2.97
2022-10-03T14:21:52.989Z,2.00
2022-10-03T14:24:36.666Z,1.65
2022-10-03T14:27:12.596Z,5.22
2022-10-03T14:29:54.417Z,1.65
2022-10-03T14:35:23.931Z,1.70
2022-10-03T14:37:58.152Z,1.67
2022-10-03T14:40:31.720Z,1.58
2022-10-03T14:43:11.706Z,1.60
2022-10-03T14:45:44.369Z,1.95
2022-10-03T14:48:17.089Z,2.00
2022-10-03T14:50:46.698Z,1.65
2022-10-03T14:53:20.301Z,1.65
2022-10-03T14:55:57.783Z,1.65
2022-10-03T14:58:29.590Z,1.80
2022-10-03T15:03:38.022Z,1.60
2022-10-03T15:06:35.146Z,1.75
2022-10-03T15:09:10.937Z,1.63
2022-10-03T15:11:47.739Z,1.55
2022-10-03T15:14:15.950Z,1.55
2022-10-03T15:16:48.536Z,1.60
2022-10-03T15:19:19.864Z,2.08
2022-10-03T15:21:51.749Z,1.90
2022-10-03T15:24:25.655Z,1.90
2022-10-03T15:26:59.571Z,1.67
2022-10-03T15:29:28.651Z,1.52
2022-10-03T15:31:58.021Z,1.77
2022-10-03T15:34:33.095Z,1.50
2022-10-03T15:37:06.300Z,1.67
2022-10-03T15:39:37.239Z,1.63
2022-10-03T15:42:22.862Z,1.60
2022-10-03T15:44:53.734Z,1.40
2022-10-03T15:47:23.859Z,1.60
2022-10-03T15:49:56.885Z,1.27
2022-10-03T15:52:28.185Z,1.35
2022-10-03T15:55:11.515Z,1.37
2022-10-03T15:57:45.050Z,1.67
2022-10-03T16:00:22.857Z,1.75
2022-10-03T16:02:55.762Z,1.38
2022-10-03T16:05:25.505Z,1.48
2022-10-03T16:08:01.492Z,1.70
2022-10-03T16:10:36.984Z,1.73
2022-10-03T16:13:19.642Z,3.88
2022-10-03T16:16:09.713Z,1.65
2022-10-03T16:18:49.148Z,1.90
2022-10-03T16:21:28.236Z,1.60
2022-10-03T16:23:58.933Z,1.60
2022-10-03T16:26:31.124Z,2.10
2022-10-03T16:29:09.823Z,2.05
2022-10-03T16:31:41.724Z,1.85
2022-10-03T16:34:16.178Z,2.90
2022-10-03T16:36:46.135Z,3.42
2022-10-03T16:39:22.845Z,3.50
2022-10-03T16:41:55.338Z,2.95
2022-10-03T16:44:32.184Z,2.60
2022-10-03T16:47:04.185Z,3.13
2022-10-03T16:49:58.392Z,2.72
2022-10-03T16:52:33.297Z,2.30
2022-10-03T16:55:05.586Z,2.35
2022-10-03T17:00:22.782Z,2.05
2022-10-03T17:02:51.192Z,2.15
2022-10-03T17:05:20.719Z,2.38
2022-10-03T17:07:51.883Z,2.53
2022-10-03T17:10:34.164Z,2.80
2022-10-03T17:13:11.442Z,2.50
2022-10-03T17:15:49.037Z,2.97
2022-10-03T17:18:25.617Z,3.00
2022-10-03T17:21:01.676Z,2.70
2022-10-03T17:23:35.788Z,2.63
2022-10-03T17:26:09.937Z,2.83
2022-10-03T17:28:49.375Z,3.10
2022-10-03T17:31:29.396Z,2.55
2022-10-03T17:34:05.528Z,2.55
2022-10-03T17:37:07.479Z,2.95
2022-10-03T17:39:43.095Z,3.03
2022-10-03T17:42:26.390Z,2.88
2022-10-03T17:45:00.373Z,2.70
2022-10-03T17:47:44.584Z,2.80
2022-10-03T17:50:16.990Z,2.70
2022-10-03T17:52:47.210Z,2.97
2022-10-03T17:55:21.351Z,3.60
2022-10-03T17:57:54.232Z,3.58
2022-10-03T18:00:25.653Z,3.47
2022-10-03T18:03:00.448Z,3.53
2022-10-03T18:05:30.937Z,3.47
2022-10-03T18:08:05.842Z,3.65
2022-10-03T18:10:37.742Z,3.95
2022-10-03T18:13:15.802Z,3.95
2022-10-03T18:16:07.556Z,3.80
2022-10-03T18:19:05.405Z,4.63
2022-10-03T18:21:47.562Z,4.93
2022-10-03T18:24:25.960Z,5.32
2022-10-03T18:27:07.030Z,4.70
2022-10-03T18:29:37.983Z,5.45
2022-10-03T18:32:15.346Z,5.60
2022-10-03T18:34:48.685Z,5.15
2022-10-03T18:37:52.965Z,5.85
2022-10-03T18:40:24.120Z,6.13
2022-10-03T18:42:52.093Z,5.78
2022-10-03T18:45:23.021Z,6.50
2022-10-03T18:47:56.720Z,6.88
2022-10-03T18:50:30.188Z,5.85
2022-10-03T18:53:08.959Z,5.97
2022-10-03T18:55:43.831Z,6.10
2022-10-03T18:58:18.861Z,6.53
2022-10-03T19:00:52.788Z,6.88
2022-10-03T19:03:30.130Z,6.50
2022-10-03T19:06:04.498Z,6.63
2022-10-03T19:08:38.705Z,7.05
2022-10-03T19:11:16.287Z,7.68
2022-10-03T19:13:53.148Z,7.25
2022-10-03T19:16:34.270Z,7.47
2022-10-03T19:19:12.583Z,7.45
2022-10-03T19:21:42.308Z,7.15
2022-10-03T19:24:14.954Z,8.15
2022-10-03T19:26:48.033Z,8.93
2022-10-03T19:29:20.501Z,8.23
2022-10-03T19:32:00.071Z,8.13
2022-10-03T19:34:36.732Z,6.97
2022-10-03T19:37:08.817Z,7.10
2022-10-03T19:39:38.980Z,6.90
2022-10-03T19:42:34.198Z,7.32
2022-10-03T19:45:02.312Z,6.95
2022-10-03T19:47:32.286Z,7.03
2022-10-03T19:50:08.559Z,6.18
2022-10-03T19:52:41.519Z,5.88
2022-10-03T19:55:14.392Z,5.88
2022-10-03T19:57:46.396Z,5.93
2022-10-03T20:00:29.732Z,6.40
2022-10-03T20:03:06.802Z,5.80
2022-10-03T20:05:42.534Z,5.95
2022-10-03T20:08:23.489Z,5.97
2022-10-03T20:11:11.161Z,5.68
2022-10-03T20:13:43.796Z,5.78
2022-10-03T20:16:16.269Z,6.72
2022-10-03T20:18:47.382Z,5.75
2022-10-03T20:21:19.460Z,5.07
2022-10-03T20:23:48.544Z,5.38
2022-10-03T20:26:23.113Z,5.45
2022-10-03T20:29:18.908Z,4.40
2022-10-03T20:31:47.915Z,4.97
2022-10-03T20:34:23.401Z,5.50
2022-10-03T20:36:59.700Z,4.80
2022-10-03T20:39:31.949Z,4.88
2022-10-03T20:42:03.181Z,4.65
2022-10-03T20:44:56.128Z,4.72
2022-10-03T20:47:45.399Z,4.68
2022-10-03T20:50:21.340Z,4.50
2022-10-03T20:52:57.922Z,4.47
2022-10-03T20:55:30.426Z,5.22
2022-10-03T20:58:14.330Z,4.93
2022-10-03T21:00:47.141Z,5.18
2022-10-03T21:03:23.160Z,5.43
2022-10-03T21:05:52.870Z,5.93
2022-10-03T21:08:24.629Z,5.72
2022-10-03T21:10:55.834Z,6.22
2022-10-03T21:13:30.415Z,6.20
2022-10-03T21:15:59.398Z,5.68
2022-10-03T21:18:29.562Z,5.40
2022-10-03T21:21:06.185Z,5.63
2022-10-03T21:23:39.484Z,5.78
2022-10-03T21:26:09.022Z,5.50
2022-10-03T21:28:38.590Z,5.38
2022-10-03T21:31:32.332Z,4.85
2022-10-03T21:34:07.067Z,5.72
2022-10-03T21:36:52.893Z,5.47
2022-10-03T21:39:31.926Z,5.57
2022-10-03T21:42:12.940Z,6.13
2022-10-03T21:44:53.397Z,5.43
2022-10-03T21:47:34.836Z,4.50
2022-10-03T21:50:07.265Z,4.63
2022-10-03T21:52:53.848Z,4.07
2022-10-03T21:55:53.157Z,4.30
2022-10-03T21:58:49.745Z,3.92
2022-10-03T22:01:24.310Z,4.38
2022-10-03T22:03:56.868Z,4.43
2022-10-03T22:06:26.992Z,4.50
2022-10-03T22:09:01.302Z,3.97
2022-10-03T22:11:43.089Z,4.80
2022-10-03T22:14:22.901Z,4.57
2022-10-03T22:16:57.545Z,4.72
2022-10-03T22:19:34.371Z,5.15
2022-10-03T22:22:14.028Z,4.70
2022-10-03T22:24:56.307Z,4.35
2022-10-03T22:27:33.337Z,4.65
2022-10-03T22:30:05.704Z,4.20
2022-10-03T22:35:17.102Z,4.25
2022-10-03T22:37:45.090Z,4.40
2022-10-03T22:40:14.257Z,4.57
2022-10-03T22:42:46.391Z,4.43
2022-10-03T22:45:16.923Z,4.85
2022-10-03T22:47:49.355Z,4.93
2022-10-03T22:50:21.390Z,4.95
2022-10-03T22:52:51.819Z,5.28
2022-10-03T22:55:23.041Z,4.70
2022-10-03T22:57:53.156Z,4.78
2022-10-03T23:00:24.494Z,5.40
2022-10-03T23:02:58.950Z,5.22
2022-10-03T23:05:48.029Z,5.45
2022-10-03T23:08:24.369Z,5.00
2022-10-03T23:10:56.254Z,5.53
2022-10-03T23:13:31.441Z,5.38
2022-10-03T23:16:07.981Z,6.18
2022-10-03T23:18:56.212Z,5.95
2022-10-03T23:21:24.072Z,5.82
2022-10-03T23:24:01.899Z,5.47
2022-10-03T23:26:59.138Z,5.40
2022-10-03T23:29:28.382Z,6.35
2022-10-03T23:32:04.569Z,5.90
2022-10-03T23:34:47.729Z,5.68
2022-10-03T23:37:46.209Z,5.38
2022-10-03T23:40:36.958Z,4.95
2022-10-03T23:43:19.664Z,5.40
2022-10-03T23:45:51.377Z,5.28
2022-10-03T23:48:21.313Z,5.32
2022-10-03T23:50:53.172Z,5.25
2022-10-03T23:53:29.325Z,5.25
2022-10-03T23:55:58.917Z,5.68
2022-10-03T23:58:29.846Z,5.82
